• Join FlightAware (Why Join?)
  • Login
  • US Flag 
01:49PM EDT


 

Airport Tracker/Info


-or-


 

Live Flight TrackerFlight Track Log ✈ JIA2469 ✈ 05-Jul-2013 ✈ KMGM - KCLT

Flight Track Log - Related Links

Times and Time Zones

All times are in EDT time to prevent confusion due to time zone crossing. See the JIA2469 flight status page for this flight to view local times or setup timezone preferences in your user account.

Time Position Orientation Groundspeed Altitude Reporting Facility
EDT Latitude Longitude Course Direction KTS MPH feet Rate Location/Type
12:42PM 32.4934 -86.0944 55° Northeast  Level FlightAware Approximate
12:42PM 32.3889 -86.2256 48° Northeast 282 325 6,500  Level Atlanta Center
12:43PM 32.5547 -85.9939 47° Northeast  Level FlightAware Approximate
12:43PM 32.4403 -86.1506 51° Northeast 282 325 9,500  Level Atlanta Center
12:44PM 32.6258 -85.9027 47° Northeast  Level FlightAware Approximate
12:44PM 32.4958 -86.0681 51° Northeast 297 342 10,800  Level Atlanta Center
12:45PM 32.6916 -85.8065 56° Northeast  Level FlightAware Approximate
12:45PM 32.5764 -85.9936 38° Northeast 328 377 11,800  Level Atlanta Center
12:46PM 32.7531 -85.7061 49° Northeast  Level FlightAware Approximate
12:46PM 32.6714 -85.9314 29° Northeast 364 419 13,000  Level Atlanta Center
12:47PM 32.7683 -85.8644 30° Northeast 382 440 14,300 1,260 Climbing Atlanta Center
12:48PM 32.8675 -85.7922 31° Northeast 399 459 15,600 1,260 Climbing Atlanta Center
12:49PM 32.9664 -85.7325 27° Northeast 404 465 16,900 1,200 Climbing Atlanta Center
12:50PM 33.0717 -85.6700 26° Northeast 404 465 18,000 1,140 Climbing Atlanta Center
12:51PM 33.1439 -85.5719 49° Northeast 396 456 19,200 1,080 Climbing Atlanta Center
12:52PM 33.1956 -85.4514 63° Northeast 394 453 20,200 900 Climbing Atlanta Center
12:53PM 33.2489 -85.3281 63° Northeast 399 459 21,000 720 Climbing Atlanta Center
12:54PM 33.3025 -85.2019 63° Northeast 412 474 21,700 660 Climbing Atlanta Center
12:55PM 33.3600 -85.0733 62° Northeast 428 493 22,400 600 Climbing Atlanta Center
12:56PM 33.4047 -84.9569 65° Northeast 423 487 23,000 600 Climbing Atlanta Center
12:57PM 33.4369 -84.8206 74° East 423 487 23,700 660 Climbing Atlanta Center
12:58PM 33.4692 -84.6814 74° East 429 494 24,400 660 Climbing Atlanta Center
12:59PM 33.5031 -84.5444 73° East 429 494 25,100 660 Climbing Atlanta Center
01:00PM 33.5453 -84.4053 70° East 429 494 25,800 660 Climbing Atlanta Center
01:01PM 33.5894 -84.2683 69° East 434 499 26,500 660 Climbing Atlanta Center
01:02PM 33.6336 -84.1286 69° East 443 510 27,200 660 Climbing Atlanta Center
01:03PM 33.6772 -83.9889 69° East 448 516 27,900 660 Climbing Atlanta Center
01:04PM 33.7231 -83.8514 68° East 448 516 28,600 540 Climbing Atlanta Center
01:05PM 33.7689 -83.7139 68° East 448 516 29,000  Climbing Atlanta Center
01:06PM 33.8142 -83.5686 69° East 455 524 28,700 -660 Descending Atlanta Center
01:07PM 33.8533 -83.4411 70° East 424 488 27,700 -900 Descending Atlanta Center
01:08PM 33.8964 -83.3081 69° East 402 463 27,000 -360 Descending Atlanta Center
01:09PM 33.9372 -83.1825 69° East 391 450 27,000  Level Atlanta Center
01:10PM 33.9742 -83.0644 69° East 386 444 27,000  Level Atlanta Center
01:11PM 34.0106 -82.9436 70° East 386 444 27,000 -60 Level Atlanta Center
01:12PM 34.0492 -82.8228 69° East 386 444 26,900 -600 Descending Atlanta Center
01:13PM 34.0853 -82.6994 70° East 387 445 25,900 -1,080 Descending Atlanta Center
01:14PM 34.1217 -82.5833 69° East 381 438 24,800 -1,200 Descending Atlanta Center
01:15PM 34.1578 -82.4622 70° East 381 438 23,600 -1,380 Descending Atlanta Center
01:16PM 34.1978 -82.3308 70° East 387 445 22,100 -1,500 Descending Atlanta Center
01:17PM 34.2586 -82.2067 59° Northeast 403 464 20,600 -1,500 Descending Atlanta Center
01:18PM 34.3342 -82.0992 50° Northeast 415 478 19,100 -1,380 Descending Atlanta Center
01:19PM 34.4097 -81.9969 48° Northeast 415 478 17,900 -1,380 Descending Atlanta Center
01:20PM 34.4831 -81.8942 49° Northeast 403 464 16,400 -1,500 Descending Atlanta Center
01:21PM 34.5522 -81.7942 50° Northeast 392 451 14,900 -1,560 Descending Atlanta Center
01:22PM 34.6031 -81.7272 47° Northeast 391 450 13,800 -1,500 Descending Atlanta Center
01:23PM 34.6883 -81.6061 49° Northeast 382 440 12,000 -840 Descending Atlanta Center
01:24PM 34.7361 -81.4936 63° Northeast 367 422 12,000  Level Atlanta Center
01:25PM 34.8033 -81.4106 45° Northeast 360 414 12,000 -240 Level Atlanta Center
01:26PM 34.8769 -81.3347 40° Northeast 352 405 11,600 -720 Descending Atlanta Center
01:27PM 34.9439 -81.2539 45° Northeast 326 375 10,600 -1,020 Descending Atlanta Center
01:28PM 35.0047 -81.1811 44° Northeast 315 362 9,600 -840 Descending Atlanta Center
01:29PM 35.0678 -81.1078 44° Northeast 315 362 9,000 -300 Descending Atlanta Center
01:30PM 35.1375 -81.0569 31° Northeast 300 345 9,000 -420 Level Atlanta Center
01:31PM 35.2103 -81.0417 10° North 263 303 8,200 -960 Descending Atlanta Center
01:32PM 35.2800 -81.0011 25° Northeast 247 284 7,000 -780 Descending Atlanta Center
01:33PM 35.3247 -80.9458 45° Northeast 246 283 6,700 -1,140 Descending Atlanta Center
01:34PM 35.3644 -80.8706 57° Northeast 245 282 4,800 -1,740 Descending Atlanta Center